地図

経路データ

SID SEASON NUMBER BASIN SUBBASIN NAME ISO_TIME NATURE LAT LON WMO_WIND WMO_PRES WMO_AGENCY TRACK_TYPE DIST2LAND LANDFALL IFLAG USA_AGENCY USA_ATCF_ID USA_LAT USA_LON USA_RECORD USA_STATUS USA_WIND USA_PRES USA_SSHS USA_R34_NE USA_R34_SE USA_R34_SW USA_R34_NW USA_R50_NE USA_R50_SE USA_R50_SW USA_R50_NW USA_R64_NE USA_R64_SE USA_R64_SW USA_R64_NW USA_POCI USA_ROCI USA_RMW USA_EYE TOKYO_LAT TOKYO_LON TOKYO_GRADE TOKYO_WIND TOKYO_PRES TOKYO_R50_DIR TOKYO_R50_LONG TOKYO_R50_SHORT TOKYO_R30_DIR TOKYO_R30_LONG TOKYO_R30_SHORT TOKYO_LAND CMA_LAT CMA_LON CMA_CAT CMA_WIND CMA_PRES HKO_LAT HKO_LON HKO_CAT HKO_WIND HKO_PRES NEWDELHI_LAT NEWDELHI_LON NEWDELHI_GRADE NEWDELHI_WIND NEWDELHI_PRES NEWDELHI_CI NEWDELHI_DP NEWDELHI_POCI REUNION_LAT REUNION_LON REUNION_TYPE REUNION_WIND REUNION_PRES REUNION_TNUM REUNION_CI REUNION_RMW REUNION_R34_NE REUNION_R34_SE REUNION_R34_SW REUNION_R34_NW REUNION_R50_NE REUNION_R50_SE REUNION_R50_SW REUNION_R50_NW REUNION_R64_NE REUNION_R64_SE REUNION_R64_SW REUNION_R64_NW BOM_LAT BOM_LON BOM_TYPE BOM_WIND BOM_PRES BOM_TNUM BOM_CI BOM_RMW BOM_R34_NE BOM_R34_SE BOM_R34_SW BOM_R34_NW BOM_R50_NE BOM_R50_SE BOM_R50_SW BOM_R50_NW BOM_R64_NE BOM_R64_SE BOM_R64_SW BOM_R64_NW BOM_ROCI BOM_POCI BOM_EYE BOM_POS_METHOD BOM_PRES_METHOD NADI_LAT NADI_LON NADI_CAT NADI_WIND NADI_PRES WELLINGTON_LAT WELLINGTON_LON WELLINGTON_WIND WELLINGTON_PRES DS824_LAT DS824_LON DS824_STAGE DS824_WIND DS824_PRES TD9636_LAT TD9636_LON TD9636_STAGE TD9636_WIND TD9636_PRES TD9635_LAT TD9635_LON TD9635_WIND TD9635_PRES TD9635_ROCI NEUMANN_LAT NEUMANN_LON NEUMANN_CLASS NEUMANN_WIND NEUMANN_PRES MLC_LAT MLC_LON MLC_CLASS MLC_WIND MLC_PRES USA_GUST BOM_GUST BOM_GUST_PER REUNION_GUST REUNION_GUST_PER USA_SEAHGT USA_SEARAD_NE USA_SEARAD_SE USA_SEARAD_SW USA_SEARAD_NW STORM_SPEED STORM_DIR
1983097S10224 1983 20 SP MM VEENA 1983-04-07 00:00:00 TS -10.3000 -135.600 main 3939 3930 O___________O_ jtwc_sh SH211983 -10.3000 -135.600 25 -1 -10.3000 -135.600 TC 25 7 249
1983097S10224 1983 20 SP MM VEENA 1983-04-07 03:00:00 TS -10.4351 -135.950 main 3930 3917 P___________P_ SH211983 -10.4351 -135.950 26 -1 -10.4351 -135.950 TC 25 8 246
1983097S10224 1983 20 SP MM VEENA 1983-04-07 06:00:00 TS -10.6000 -136.300 main 3917 3881 O___________O_ jtwc_sh SH211983 -10.6000 -136.300 27 -1 -10.6000 -136.300 TC 25 8 242
1983097S10224 1983 20 SP MM VEENA 1983-04-07 09:00:00 TS -10.8075 -136.650 main 3881 3834 P___________P_ SH211983 -10.8075 -136.650 28 -1 -10.8075 -136.650 TC 27 8 240
1983097S10224 1983 20 SP MM VEENA 1983-04-07 12:00:00 TS -11.0000 -137.000 main 3834 3800 O___________O_ jtwc_sh SH211983 -11.0000 -137.000 30 -1 -11.0000 -137.000 TC 30 8 246
1983097S10224 1983 20 SP MM VEENA 1983-04-07 15:00:00 TS -11.1150 -137.350 main 3789 3755 P___________P_ SH211983 -11.1150 -137.350 31 -1 -11.1150 -137.350 TC 30 7 254
1983097S10224 1983 20 SP MM VEENA 1983-04-07 18:00:00 TS -11.2000 -137.700 main 3755 3721 O___________O_ jtwc_sh SH211983 -11.2000 -137.700 32 -1 -11.2000 -137.700 TC 30 7 254
1983097S10224 1983 20 SP MM VEENA 1983-04-07 21:00:00 TS -11.2997 -137.998 main 3721 3675 P___________P_ SH211983 -11.2997 -137.998 33 -1 -11.2997 -137.998 TC 32 8 243
1983097S10224 1983 20 SP MM VEENA 1983-04-08 00:00:00 TS -11.5600 -138.420 40 990 wellington main 3674 3607 O_______O_O_O_ jtwc_sh SH211983 -11.4000 -138.400 35 0 -12.2000 -138.500 40 990 -12.2000 -138.500 2 -11.4000 -138.400 TC 35 12 247
1983097S10224 1983 20 SP MM VEENA 1983-04-08 03:00:00 TS -11.7478 -139.088 main 3596 3518 P_______P_P_P_ SH211983 -11.4923 -139.003 36 0 -12.2589 -139.258 40 990 -12.2589 -139.258 2 -11.4923 -139.003 TC 35 15 256
1983097S10224 1983 20 SP MM VEENA 1983-04-08 06:00:00 TS -11.9100 -139.896 main 3507 3418 O_______P_P_O_ jtwc_sh SH211983 -11.6000 -139.800 37 0 -12.3234 -140.023 40 990 -12.3234 -140.023 2 -11.6000 -139.800 TC 35 17 259
1983097S10224 1983 20 SP MM VEENA 1983-04-08 09:00:00 TS -12.0721 -140.797 main 3407 3309 P_______P_P_P_ SH211983 -11.7429 -140.792 38 0 -12.4012 -140.801 40 990 -12.4012 -140.801 2 -11.7429 -140.792 TC 37 18 261
1983097S10224 1983 20 SP MM VEENA 1983-04-08 12:00:00 TS -12.2000 -141.700 40 990 wellington main 3309 3221 O_______O_O_O_ jtwc_sh SH211983 -11.9000 -141.800 40 0 -12.5000 -141.600 40 990 -12.5000 -141.600 2 -11.9000 -141.800 TC 40 17 261
1983097S10224 1983 20 SP MM VEENA 1983-04-08 15:00:00 TS -12.3364 -142.506 main 3221 3143 P_______P_P_P_ SH211983 -12.0495 -142.595 41 0 -12.6232 -142.416 41 989 -12.6232 -142.416 2 -12.0495 -142.595 TC 40 15 260
1983097S10224 1983 20 SP MM VEENA 1983-04-08 18:00:00 TS -12.4791 -143.253 main 3132 3066 O_______P_P_O_ jtwc_sh SH211983 -12.2000 -143.300 42 0 -12.7582 -143.207 42 988 -12.7582 -143.207 2 -12.2000 -143.300 TC 40 15 259
1983097S10224 1983 20 SP MM VEENA 1983-04-08 21:00:00 TS -12.6233 -143.986 main 3055 2989 P_______P_P_P_ SH211983 -12.3576 -144.052 43 0 -12.8890 -143.919 43 987 -12.8890 -143.919 2 -12.3576 -144.052 TC 42 13 258
1983097S10224 1983 20 SP MM VEENA 1983-04-09 00:00:00 TS -12.7500 -144.600 45 987 wellington main 2989 2945 O_______O_O_O_ jtwc_sh SH211983 -12.5000 -144.700 45 0 -13.0000 -144.500 45 987 -13.0000 -144.500 2 -12.5000 -144.700 TC 45 10 258
1983097S10224 1983 20 SP MM VEENA 1983-04-09 03:00:00 TS -12.8368 -145.027 main 2945 2912 P_______P_P_P_ SH211983 -12.6073 -145.168 46 0 -13.0662 -144.887 48 984 -13.0662 -144.887 2 -12.6073 -145.168 TC 45 7 257
1983097S10224 1983 20 SP MM VEENA 1983-04-09 06:00:00 TS -12.9068 -145.321 main 2912 2889 O_______P_P_O_ jtwc_sh SH211983 -12.7000 -145.500 47 0 -13.1135 -145.143 52 981 -13.1135 -145.143 2 -12.7000 -145.500 TC 45 5 254
1983097S10224 1983 20 SP MM VEENA 1983-04-09 09:00:00 TS -12.9808 -145.554 main 2878 2868 P_______P_P_P_ SH211983 -12.8074 -145.780 48 0 -13.1541 -145.327 56 978 -13.1541 -145.327 2 -12.8074 -145.780 TC 47 4 251
1983097S10224 1983 20 SP MM VEENA 1983-04-09 12:00:00 TS -13.0500 -145.750 60 975 wellington main 2868 2834 O_______O_O_O_ jtwc_sh SH211983 -12.9000 -146.000 50 0 -13.2000 -145.500 60 975 -13.2000 -145.500 4 -12.9000 -146.000 TC 50 4 253
1983097S10224 1983 20 SP MM VEENA 1983-04-09 15:00:00 TS -13.1130 -145.991 main 2834 2812 P_______P_P_P_ SH211983 -12.9500 -146.208 51 0 -13.2760 -145.774 62 972 -13.2760 -145.774 4 -12.9500 -146.208 TC 50 5 254
1983097S10224 1983 20 SP MM VEENA 1983-04-09 18:00:00 TS -13.1788 -146.222 main 2812 2789 O_______P_P_O_ jtwc_sh SH211983 -13.0000 -146.400 53 0 -13.3576 -146.045 65 970 -13.3576 -146.045 4 -13.0000 -146.400 TC 50 5 251
1983097S10224 1983 20 SP MM VEENA 1983-04-09 21:00:00 TS -13.2677 -146.450 main 2778 2768 P_______P_P_P_ SH211983 -13.1000 -146.607 56 0 -13.4354 -146.293 67 967 -13.4354 -146.293 4 -13.1000 -146.607 TC 55 5 248
1983097S10224 1983 20 SP MM VEENA 1983-04-10 00:00:00 TS -13.3500 -146.650 70 965 wellington main 2768 2745 O_______O_O_O_ jtwc_sh SH211983 -13.2000 -146.800 60 0 -13.5000 -146.500 70 965 -13.5000 -146.500 4 -13.2000 -146.800 TC 60 4 250
1983097S10224 1983 20 SP MM VEENA 1983-04-10 03:00:00 TS -13.3926 -146.799 main 2745 2734 P_______P_P_P_ SH211983 -13.2500 -146.950 64 1 -13.5352 -146.647 73 960 -13.5352 -146.647 4 -13.2500 -146.950 TC 62 3 254
1983097S10224 1983 20 SP MM VEENA 1983-04-10 06:00:00 TS -13.4287 -146.926 main 2734 2712 O_______P_P_O_ jtwc_sh SH211983 -13.3000 -147.100 69 1 -13.5573 -146.753 77 955 -13.5573 -146.753 4 -13.3000 -147.100 TC 65 3 250
1983097S10224 1983 20 SP MM VEENA 1983-04-10 09:00:00 TS -13.4879 -147.070 main 2712 2701 P_______P_P_P_ SH211983 -13.4000 -147.307 74 1 -13.5758 -146.832 81 950 -13.5758 -146.832 4 -13.4000 -147.307 TC 70 3 245
1983097S10224 1983 20 SP MM VEENA 1983-04-10 12:00:00 TS -13.5500 -147.200 85 945 wellington main 2701 2690 O_______O_O_O_ jtwc_sh SH211983 -13.5000 -147.500 79 1 -13.6000 -146.900 85 945 -13.6000 -146.900 4 -13.5000 -147.500 TC 75 2 243
1983097S10224 1983 20 SP MM VEENA 1983-04-10 15:00:00 TS -13.5964 -147.287 main 2690 2679 P_______P_P_P_ SH211983 -13.5500 -147.608 83 2 -13.6427 -146.966 87 941 -13.6427 -146.966 4 -13.5500 -147.608 TC 80 2 239
1983097S10224 1983 20 SP MM VEENA 1983-04-10 18:00:00 TS -13.6462 -147.364 main 2679 2668 O_______P_P_O_ jtwc_sh SH211983 -13.6000 -147.700 88 2 -13.6924 -147.028 90 937 -13.6924 -147.028 4 -13.6000 -147.700 TC 85 2 236
1983097S10224 1983 20 SP MM VEENA 1983-04-10 21:00:00 TS -13.7229 -147.479 main 2668 2656 P_______P_P_P_ SH211983 -13.7000 -147.857 91 2 -13.7459 -147.100 92 933 -13.7459 -147.100 4 -13.7000 -147.857 TC 90 3 236
1983097S10224 1983 20 SP MM VEENA 1983-04-11 00:00:00 TS -13.8000 -147.600 95 930 wellington main 2656 2645 O_______O_O_O_ jtwc_sh SH211983 -13.8000 -148.000 95 2 -13.8000 -147.200 95 930 -13.8000 -147.200 4 -13.8000 -148.000 TC 95 2 244
1983097S10224 1983 20 SP MM VEENA 1983-04-11 03:00:00 TS -13.8280 -147.704 main 2645 2634 P_______P_P_P_ SH211983 -13.8425 -148.058 96 3 -13.8135 -147.350 96 928 -13.8135 -147.350 4 -13.8425 -148.058 TC 97 2 252
1983097S10224 1983 20 SP MM VEENA 1983-04-11 06:00:00 TS -13.8663 -147.814 main 2634 2623 O_______P_P_O_ jtwc_sh SH211983 -13.9000 -148.100 98 3 -13.8326 -147.528 97 927 -13.8326 -147.528 4 -13.9000 -148.100 TC 100 3 242
1983097S10224 1983 20 SP MM VEENA 1983-04-11 09:00:00 TS -13.9602 -147.958 main 2612 2601 P_______P_P_P_ SH211983 -14.0350 -148.200 99 3 -13.8854 -147.716 98 926 -13.8854 -147.716 4 -14.0350 -148.200 TC 100 4 230
1983097S10224 1983 20 SP MM VEENA 1983-04-11 12:00:00 TS -14.1000 -148.100 100 925 wellington main 2601 2589 O_______O_O_O_ jtwc_sh SH211983 -14.2000 -148.300 100 3 -14.0000 -147.900 100 925 -14.0000 -147.900 4 -14.2000 -148.300 TC 100 4 219
1983097S10224 1983 20 SP MM VEENA 1983-04-11 15:00:00 TS -14.2628 -148.210 main 2589 2578 P_______P_P_P_ SH211983 -14.3275 -148.350 100 3 -14.1981 -148.069 100 925 -14.1981 -148.069 4 -14.3275 -148.350 TC 102 4 209
1983097S10224 1983 20 SP MM VEENA 1983-04-11 18:00:00 TS -14.4800 -148.315 main 2578 2567 O_______P_P_O_ jtwc_sh SH211983 -14.5000 -148.400 100 3 -14.4600 -148.230 100 925 -14.4600 -148.230 4 -14.5000 -148.400 TC 105 943 6 204
1983097S10224 1983 20 SP MM VEENA 1983-04-11 21:00:00 TS -14.7647 -148.438 main 2566 2556 P_______P_P_P_ SH211983 -14.7625 -148.500 100 3 -14.7669 -148.376 100 925 -14.7669 -148.376 4 -14.7625 -148.500 TC 102 7 200
1983097S10224 1983 20 SP MM VEENA 1983-04-12 00:00:00 TS -15.1000 -148.550 100 925 wellington main 2545 2545 O_______O_O_O_ jtwc_sh SH211983 -15.1000 -148.600 100 3 -15.1000 -148.500 100 925 -15.1000 -148.500 4 -15.1000 -148.600 TC 100 7 196
1983097S10224 1983 20 SP MM VEENA 1983-04-12 03:00:00 TS -15.4370 -148.638 main 2545 2535 P_______P_P_P_ SH211983 -15.4700 -148.643 98 3 -15.4040 -148.633 100 925 -15.4040 -148.633 4 -15.4700 -148.643 TC 100 7 193
1983097S10224 1983 20 SP MM VEENA 1983-04-12 06:00:00 TS -15.8162 -148.720 main 2536 2526 O_______P_P_O_ jtwc_sh SH211983 -15.9000 -148.700 97 3 -15.7325 -148.739 100 925 -15.7325 -148.739 4 -15.9000 -148.700 TC 100 8 193
1983097S10224 1983 20 SP MM VEENA 1983-04-12 09:00:00 TS -16.2473 -148.829 main 2527 2517 P_______P_P_P_ SH211983 -16.4000 -148.857 96 3 -16.0946 -148.801 100 925 -16.0946 -148.801 4 -16.4000 -148.857 TC 97 9 191
1983097S10224 1983 20 SP MM VEENA 1983-04-12 12:00:00 TS -16.7000 -148.900 100 925 wellington main 2520 2520 O_______O_O_O_ jtwc_sh SH211983 -16.9000 -149.000 95 2 -16.5000 -148.800 100 925 -16.5000 -148.800 4 -16.9000 -149.000 TC 95 9 187
1983097S10224 1983 20 SP MM VEENA 1983-04-12 15:00:00 TS -17.1080 -148.942 main 2523 2523 P_______P_P_P_ SH211983 -17.2923 -149.082 93 2 -16.9236 -148.802 98 926 -16.9236 -148.802 4 -17.2923 -149.082 TC 92 9 177
1983097S10224 1983 20 SP MM VEENA 1983-04-12 18:00:00 TS -17.5468 -148.864 main 2528 2528 O_______P_P_O_ jtwc_sh SH211983 -17.7000 -149.000 92 2 -17.3935 -148.729 97 927 -17.3935 -148.729 4 -17.7000 -149.000 TC 90 10 163
1983097S10224 1983 20 SP MM VEENA 1983-04-12 21:00:00 TS -18.0568 -148.641 main 2567 2567 P_______P_P_P_ SH211983 -18.1969 -148.742 91 2 -17.9168 -148.541 96 928 -17.9168 -148.541 4 -18.1969 -148.742 TC 90 13 150
1983097S10224 1983 20 SP MM VEENA 1983-04-13 00:00:00 TS -18.6500 -148.200 95 930 wellington main 2616 2616 O_______O_O_O_ jtwc_sh SH211983 -18.8000 -148.200 90 2 -18.5000 -148.200 95 930 -18.5000 -148.200 4 -18.8000 -148.200 TC 90 16 140
1983097S10224 1983 20 SP MM VEENA 1983-04-13 03:00:00 TS -19.2981 -147.522 main 2701 2701 P_______P_P_P_ SH211983 -19.4906 -147.332 88 2 -19.1057 -147.713 86 941 -19.1057 -147.713 4 -19.4906 -147.332 TC 87 20 134
1983097S10224 1983 20 SP MM VEENA 1983-04-13 06:00:00 TS -20.0359 -146.683 main 2797 2797 O_______P_P_O_ jtwc_sh SH211983 -20.3000 -146.300 86 2 -19.7718 -147.065 77 952 -19.7718 -147.065 4 -20.3000 -146.300 TC 85 23 134
1983097S10224 1983 20 SP MM VEENA 1983-04-13 09:00:00 TS -20.8682 -145.814 main 2908 2908 P_______P_P_P_ SH211983 -21.2346 -145.342 83 2 -20.5018 -146.285 68 963 -20.5018 -146.285 4 -21.2346 -145.342 TC 82 24 136
1983097S10224 1983 20 SP MM VEENA 1983-04-13 12:00:00 TS -21.7500 -144.900 60 975 wellington main 3018 3018 O_______O_O_O_ jtwc_sh SH211983 -22.2000 -144.400 80 1 -21.3000 -145.400 60 975 -21.3000 -145.400 2 -22.2000 -144.400 TC 80 25 135
1983097S10224 1983 20 SP MM VEENA 1983-04-13 15:00:00 TS -22.6118 -143.962 main 3131 3131 P_______P_P_P_ SH211983 -23.0568 -143.491 75 1 -22.1668 -144.433 56 978 -22.1668 -144.433 2 -23.0568 -143.491 TC 75 26 135
1983097S10224 1983 20 SP MM VEENA 1983-04-13 18:00:00 TS -23.5512 -142.943 main 3266 3266 O_______P_P_O_ jtwc_sh SH211983 -23.9000 -142.600 70 1 -23.0862 -143.401 52 981 -23.0862 -143.401 2 -23.9000 -142.600 TC 70 27 136
1983097S10224 1983 20 SP MM VEENA 1983-04-13 21:00:00 TS -24.5353 -141.915 main 3390 3390 P_______P_P_P_ SH211983 -24.7842 -141.713 65 1 -24.0376 -142.317 48 984 -24.0376 -142.317 2 -24.7842 -141.713 TC 65 28 137
1983097S10224 1983 20 SP MM VEENA 1983-04-14 00:00:00 TS -25.5600 -140.880 45 987 wellington main 3520 3520 O_______O_O_O_ jtwc_sh SH211983 -25.7000 -140.800 60 0 -25.0000 -141.200 45 987 -25.0000 -141.200 2 -25.7000 -140.800 TC 60 28 138
1983097S10224 1983 20 SP MM VEENA 1983-04-14 03:00:00 TS -26.6271 -139.813 main 3656 3656 P___________P_ SH211983 -26.6271 -139.813 55 0 2 -26.6271 -139.813 TC 55 28 138
1983097S10224 1983 20 SP MM VEENA 1983-04-14 06:00:00 TS -27.6000 -138.800 main 3783 3783 O___________O_ jtwc_sh SH211983 -27.6000 -138.800 50 0 2 -27.6000 -138.800 TC 50 27 138
1983097S10224 1983 20 SP MM VEENA 1983-04-14 09:00:00 TS -28.6337 -137.799 main 3910 3910 P___________P_ SH211983 -28.6337 -137.799 45 0 2 -28.6337 -137.799 TC 45 27 140
1983097S10224 1983 20 SP MM VEENA 1983-04-14 12:00:00 TS -29.7000 -136.800 main 4040 O___________O_ jtwc_sh SH211983 -29.7000 -136.800 40 0 -29.7000 -136.800 TC 40 28 141

デジタル台風データ・検索

IBTrACS Databaseについて

本データベースは、米国NOAAが公開する1842年以降の世界の熱帯低気圧のベストトラックデータアーカイブInternational Best Track Archive for Climate Stewardship (IBTrACS)を、ウェブで閲覧しやすい形式に変換したものです。

最終更新日:2021-10-27